Terminal Aerodrome Forecast
Issued by NWS

Home | Current Version | Previous Version | Text Only | Print | Product List | Glossary Off
Versions: 1 2 3 4 5 6 7 8 9 10 11 12 13 14

000
FTUS41 KCLE 251740
TAFFDY
TAF
KFDY 251740Z 2518/2618 26012KT P6SM SCT030 BKN050
     FM252300 27006KT P6SM BKN060
     FM261500 30006KT P6SM BKN050=

USA.gov is the U.S. government's official web portal to all federal, state and local government web resources and services.